Time;durP1;ratioP1;P1;durP2;ratioP2;P2;SDS_P1;SDS_P2;PMS_P1;PMS_P2;Temp;Humidity;BMP_temperature;BMP_pressure;BME280_temperature;BME280_humidity;BME280_pressure;Samples;Min_cycle;Max_cycle;Signal;HPM_P1;HPM_P2
2021/12/30 00:00:12;;;;;;;78.90;40.15;;;;;;;1.05;100.00;99175.75;5040708;28;20137;-71
2021/12/30 00:03:06;;;;;;;74.50;36.75;;;;;;;1.03;100.00;99178.31;5055486;28;20435;-71
2021/12/30 00:05:52;;;;;;;62.10;33.58;;;;;;;1.04;100.00;99171.41;5054670;28;20415;-71
2021/12/30 00:08:37;;;;;;;56.40;31.73;;;;;;;0.98;100.00;99177.44;5055391;28;20045;-71
2021/12/30 00:11:22;;;;;;;65.32;33.65;;;;;;;1.05;100.00;99174.03;5055254;28;20052;-71
2021/12/30 00:14:08;;;;;;;64.78;33.45;;;;;;;1.05;100.00;99179.19;5055227;28;20041;-71
2021/12/30 00:16:52;;;;;;;75.22;34.67;;;;;;;1.08;100.00;99176.63;5055358;28;20045;-71
2021/12/30 00:19:36;;;;;;;65.50;33.22;;;;;;;1.08;100.00;99186.06;5055445;28;20087;-71
2021/12/30 00:22:21;;;;;;;62.38;34.70;;;;;;;1.09;100.00;99183.47;5054336;28;20048;-71
2021/12/30 00:25:06;;;;;;;62.17;33.40;;;;;;;1.02;100.00;99179.16;5055141;28;20041;-71
2021/12/30 00:27:50;;;;;;;61.20;32.13;;;;;;;0.98;100.00;99192.06;5040380;28;20122;-71
2021/12/30 00:30:36;;;;;;;62.03;34.08;;;;;;;1.00;100.00;99186.03;5055028;28;20045;-71
2021/12/30 00:33:21;;;;;;;65.57;34.70;;;;;;;1.06;100.00;99185.19;5054123;28;20045;-71
2021/12/30 00:36:07;;;;;;;65.55;33.47;;;;;;;1.04;100.00;99192.94;5054279;28;20048;-71
2021/12/30 00:38:52;;;;;;;77.85;37.72;;;;;;;1.11;100.00;99188.66;5054833;28;20116;-71
2021/12/30 00:41:37;;;;;;;69.88;35.40;;;;;;;1.09;100.00;99190.38;5054083;28;20045;-71
2021/12/30 00:44:21;;;;;;;68.82;35.13;;;;;;;1.07;100.00;99192.97;5053974;28;20044;-71
2021/12/30 00:47:05;;;;;;;67.13;34.90;;;;;;;1.04;100.00;99195.53;5054741;28;20048;-71
2021/12/30 00:49:52;;;;;;;60.05;32.58;;;;;;;1.04;100.00;99192.94;5054686;28;20423;-71
2021/12/30 00:52:36;;;;;;;64.82;34.17;;;;;;;1.08;100.00;99192.09;5054609;28;20354;-71
2021/12/30 00:55:21;;;;;;;61.40;33.70;;;;;;;1.07;100.00;99195.53;5054434;28;20392;-71
2021/12/30 00:58:07;;;;;;;64.38;34.50;;;;;;;1.09;100.00;99195.53;5053596;28;20045;-71
2021/12/30 01:00:53;;;;;;;59.10;31.92;;;;;;;1.08;100.00;99193.81;5053772;28;20064;-71
2021/12/30 01:03:38;;;;;;;70.38;36.20;;;;;;;1.10;100.00;99192.06;5053758;28;20465;-71
2021/12/30 01:06:22;;;;;;;61.85;31.17;;;;;;;1.10;100.00;99189.50;5054422;28;20355;-71
2021/12/30 01:09:07;;;;;;;73.40;34.03;;;;;;;1.08;100.00;99188.66;5053638;28;20045;-71
2021/12/30 01:11:53;;;;;;;68.57;35.30;;;;;;;1.11;100.00;99193.81;5054376;28;20041;-71
2021/12/30 01:14:37;;;;;;;63.15;31.38;;;;;;;1.11;100.00;99192.09;5053550;28;20045;-71
2021/12/30 01:17:28;;;;;;;54.15;29.23;;;;;;;1.11;100.00;99194.69;5054131;28;20328;-71
2021/12/30 01:20:15;;;;;;;54.30;27.42;;;;;;;1.10;100.00;99195.50;5054183;28;20135;-71
2021/12/30 01:22:59;;;;;;;52.90;29.13;;;;;;;1.17;100.00;99205.03;5039597;28;20047;-71
2021/12/30 01:25:44;;;;;;;52.38;28.75;;;;;;;1.10;100.00;99199.81;5039439;28;20332;-71
2021/12/30 01:28:28;;;;;;;60.25;29.98;;;;;;;1.12;100.00;99196.41;5039320;28;20057;-71
2021/12/30 01:31:13;;;;;;;56.55;30.40;;;;;;;1.07;100.00;99185.22;5054028;28;20042;-71
2021/12/30 01:33:58;;;;;;;58.20;30.38;;;;;;;1.09;100.00;99191.22;5054056;28;20097;-71
2021/12/30 01:36:42;;;;;;;51.88;28.40;;;;;;;1.10;100.00;99195.50;5039257;28;20064;-71
2021/12/30 01:39:27;;;;;;;51.70;29.25;;;;;;;1.06;100.00;99200.66;5053246;28;20374;-71
2021/12/30 01:42:12;;;;;;;55.17;28.60;;;;;;;1.09;100.00;99196.38;5053791;28;20045;-71
2021/12/30 01:44:56;;;;;;;49.20;27.02;;;;;;;1.08;100.00;99204.13;5053130;28;20120;-71
2021/12/30 01:47:47;;;;;;;52.10;29.08;;;;;;;1.14;100.00;99191.25;5053859;28;20037;-71
2021/12/30 01:50:32;;;;;;;46.17;26.70;;;;;;;1.18;100.00;99190.41;5053599;28;20065;-71
2021/12/30 01:53:18;;;;;;;56.92;28.48;;;;;;;1.23;100.00;99199.00;5053685;28;20045;-71
2021/12/30 01:56:04;;;;;;;49.95;26.67;;;;;;;1.15;100.00;99203.28;5053784;28;20037;-71
2021/12/30 01:58:48;;;;;;;55.63;27.65;;;;;;;1.23;100.00;99214.47;5053103;28;20041;-71
2021/12/30 02:01:33;;;;;;;50.83;27.70;;;;;;;1.22;100.00;99204.16;5038910;28;20390;-71
2021/12/30 02:04:17;;;;;;;45.17;24.80;;;;;;;1.20;100.00;99217.03;5052740;28;20041;-71
2021/12/30 02:07:02;;;;;;;47.10;25.65;;;;;;;1.19;100.00;99215.34;5053598;28;20037;-71
2021/12/30 02:09:47;;;;;;;46.33;26.70;;;;;;;1.14;100.00;99217.06;5037928;28;20053;-71
2021/12/30 02:12:33;;;;;;;46.70;24.42;;;;;;;1.16;100.00;99213.59;5053370;28;20089;-72
2021/12/30 02:15:19;;;;;;;40.33;21.95;;;;;;;1.22;100.00;99223.09;5053345;28;20044;-71
2021/12/30 02:18:03;;;;;;;46.25;23.98;;;;;;;1.19;100.00;99225.66;5052598;28;20033;-71
2021/12/30 02:20:52;;;;;;;42.92;24.27;;;;;;;1.21;100.00;99230.84;5052644;28;20060;-71
2021/12/30 02:23:37;;;;;;;46.42;24.40;;;;;;;1.12;100.00;99222.19;5052599;28;20048;-71
2021/12/30 02:26:22;;;;;;;54.53;26.83;;;;;;;1.18;100.00;99226.53;5052456;28;20427;-72
2021/12/30 02:29:06;;;;;;;65.43;32.03;;;;;;;1.19;100.00;99228.22;5053235;28;20120;-71
2021/12/30 02:31:50;;;;;;;70.28;35.17;;;;;;;1.23;100.00;99227.38;5052525;28;20041;-71
2021/12/30 02:34:38;;;;;;;79.25;44.95;;;;;;;1.29;100.00;99229.13;5038378;28;20037;-71
2021/12/30 02:37:23;;;;;;;135.85;70.85;;;;;;;1.28;100.00;99242.88;5052998;28;20041;-71
2021/12/30 02:40:08;;;;;;;124.43;67.43;;;;;;;1.29;100.00;99234.28;5053058;28;20045;-71
2021/12/30 02:42:53;;;;;;;106.20;56.47;;;;;;;1.30;100.00;99246.31;5053017;28;20041;-71
2021/12/30 02:45:37;;;;;;;85.43;43.70;;;;;;;1.31;100.00;99248.06;5052866;28;20073;-71
2021/12/30 02:48:24;;;;;;;78.35;38.13;;;;;;;1.33;100.00;99236.91;5052888;28;20346;-71
2021/12/30 02:51:11;;;;;;;65.97;33.38;;;;;;;1.34;100.00;99246.34;5051770;28;20438;-71
2021/12/30 02:53:55;;;;;;;59.78;31.90;;;;;;;1.36;100.00;99249.78;5052763;28;20048;-72
2021/12/30 02:56:46;;;;;;;52.75;28.40;;;;;;;1.31;100.00;99225.69;5052790;28;20045;-71
2021/12/30 02:59:31;;;;;;;60.13;29.38;;;;;;;1.41;100.00;99249.81;5052521;28;20060;-71
2021/12/30 03:02:15;;;;;;;50.13;26.90;;;;;;;1.40;100.00;99246.38;5052691;28;20041;-71
2021/12/30 03:05:00;;;;;;;52.45;29.27;;;;;;;1.38;100.00;99245.50;5038150;28;20060;-71
2021/12/30 03:07:45;;;;;;;50.42;27.00;;;;;;;1.39;100.00;99248.94;5052861;28;20052;-71
2021/12/30 03:10:29;;;;;;;53.35;27.90;;;;;;;1.46;100.00;99260.13;5052016;28;20055;-71
2021/12/30 03:13:15;;;;;;;45.20;23.88;;;;;;;1.45;100.00;99268.75;5052602;28;20046;-71
2021/12/30 03:16:04;;;;;;;41.95;22.85;;;;;;;1.45;100.00;99263.59;5037915;28;20458;-71
2021/12/30 03:18:50;;;;;;;42.97;24.13;;;;;;;1.43;100.00;99260.13;5052484;28;20041;-71
2021/12/30 03:21:34;;;;;;;40.28;23.45;;;;;;;1.45;100.00;99251.53;5056095;28;20041;-71
2021/12/30 03:24:19;;;;;;;44.72;21.88;;;;;;;1.45;100.00;99253.25;5055984;28;20430;-71
2021/12/30 03:27:06;;;;;;;41.08;22.85;;;;;;;1.48;100.00;99255.84;5055359;28;20425;-71
2021/12/30 03:29:50;;;;;;;44.35;22.48;;;;;;;1.49;100.00;99260.16;5055898;28;20093;-71
2021/12/30 03:32:35;;;;;;;40.63;21.92;;;;;;;1.47;100.00;99265.31;5055948;28;20041;-71
2021/12/30 03:35:19;;;;;;;39.45;21.83;;;;;;;1.44;100.00;99272.19;5055120;28;20454;-71
2021/12/30 03:38:04;;;;;;;42.53;22.42;;;;;;;1.46;100.00;99271.31;5055142;28;20041;-71
2021/12/30 03:40:48;;;;;;;46.38;24.25;;;;;;;1.47;100.00;99262.75;5055842;28;20069;-71
2021/12/30 03:43:34;;;;;;;40.00;22.85;;;;;;;1.49;100.00;99273.91;5055011;28;20041;-71
2021/12/30 03:46:18;;;;;;;38.55;23.42;;;;;;;1.47;100.00;99272.22;5055668;28;20347;-71
2021/12/30 03:49:05;;;;;;;37.50;21.25;;;;;;;1.45;100.00;99279.94;5054900;28;20362;-71
2021/12/30 03:51:52;;;;;;;42.10;21.88;;;;;;;1.50;100.00;99283.41;5055701;28;20427;-71
2021/12/30 03:54:37;;;;;;;39.53;20.92;;;;;;;1.47;100.00;99292.84;5055547;28;20045;-71
2021/12/30 03:57:21;;;;;;;36.72;18.88;;;;;;;1.39;100.00;99290.22;5055532;28;20427;-71
2021/12/30 04:00:07;;;;;;;40.13;20.50;;;;;;;1.42;100.00;99282.50;5040561;28;20060;-71
2021/12/30 04:02:51;;;;;;;35.53;19.17;;;;;;;1.42;100.00;99290.25;5055447;28;20431;-71
2021/12/30 04:05:36;;;;;;;45.58;23.58;;;;;;;1.46;100.00;99284.22;5054678;28;20108;-72
2021/12/30 04:08:20;;;;;;;46.90;24.20;;;;;;;1.45;100.00;99290.25;5055317;28;20059;-71
2021/12/30 04:11:06;;;;;;;43.53;23.38;;;;;;;1.36;100.00;99292.78;5040900;28;20097;-71
2021/12/30 04:13:50;;;;;;;48.90;26.25;;;;;;;1.39;100.00;99291.09;5055259;28;20037;-71
2021/12/30 04:16:36;;;;;;;51.40;26.40;;;;;;;1.33;100.00;99287.63;5054494;28;20037;-71
2021/12/30 04:19:21;;;;;;;47.28;24.98;;;;;;;1.35;100.00;99299.69;5055111;28;20041;-71
2021/12/30 04:22:05;;;;;;;46.10;23.00;;;;;;;1.40;100.00;99291.97;5040504;28;20052;-71
2021/12/30 04:24:50;;;;;;;44.65;22.33;;;;;;;1.36;100.00;99278.16;5055139;28;20045;-71
2021/12/30 04:27:35;;;;;;;39.83;21.90;;;;;;;1.30;100.00;99275.59;5054492;28;20037;-71
2021/12/30 04:30:19;;;;;;;45.17;23.73;;;;;;;1.27;100.00;99270.41;5040041;28;20041;-71
2021/12/30 04:33:04;;;;;;;47.25;25.55;;;;;;;1.22;100.00;99258.34;5054567;28;20045;-71
2021/12/30 04:35:55;;;;;;;48.58;25.05;;;;;;;1.18;100.00;99270.38;5026679;28;20053;-71
2021/12/30 04:38:40;;;;;;;45.30;24.02;;;;;;;1.18;100.00;99296.16;5054925;28;20392;-71
2021/12/30 04:41:24;;;;;;;46.38;25.92;;;;;;;1.17;100.00;99321.13;5054785;28;20048;-71
2021/12/30 04:44:09;;;;;;;112.93;36.55;;;;;;;1.23;100.00;99314.25;5054772;28;20128;-71
2021/12/30 04:46:55;;;;;;;99.65;34.53;;;;;;;1.24;100.00;99310.81;5054139;28;20116;-71
2021/12/30 04:49:40;;;;;;;98.65;33.97;;;;;;;1.26;100.00;99297.06;5039993;28;20045;-71
2021/12/30 04:52:28;;;;;;;100.57;33.60;;;;;;;1.22;100.00;99308.22;5039973;28;20430;-71
2021/12/30 04:55:12;;;;;;;91.05;33.80;;;;;;;1.18;100.00;99301.34;5053933;28;20041;-71
2021/12/30 04:57:57;;;;;;;77.05;29.83;;;;;;;1.20;100.00;99303.91;5054713;28;20072;-71
2021/12/30 05:00:42;;;;;;;72.30;28.00;;;;;;;1.17;100.00;99290.16;5053736;28;20052;-71
2021/12/30 05:03:27;;;;;;;69.40;29.80;;;;;;;1.13;100.00;99303.00;5039731;28;20041;-71
2021/12/30 05:06:12;;;;;;;60.42;27.30;;;;;;;1.11;100.00;99302.16;5053732;28;20045;-71
2021/12/30 05:08:56;;;;;;;90.25;32.33;;;;;;;1.13;100.00;99287.53;5039671;28;20466;-71
2021/12/30 05:11:42;;;;;;;91.43;34.63;;;;;;;1.23;100.00;99302.19;5054426;28;20037;-71
2021/12/30 05:14:26;;;;;;;93.07;30.85;;;;;;;1.12;100.00;99302.16;5039478;28;20056;-71
2021/12/30 05:17:11;;;;;;;68.40;28.30;;;;;;;1.13;100.00;99301.28;5054223;28;20378;-71
2021/12/30 05:19:56;;;;;;;71.20;28.60;;;;;;;1.20;100.00;99316.81;5054410;28;20439;-71
2021/12/30 05:22:42;;;;;;;54.42;24.73;;;;;;;1.17;100.00;99322.84;5054207;28;20037;-71
2021/12/30 05:25:27;;;;;;;46.40;22.70;;;;;;;1.20;100.00;99304.75;5054146;28;20422;-72
2021/12/30 05:28:11;;;;;;;43.78;22.08;;;;;;;1.22;100.00;99313.38;5054098;28;20435;-71
2021/12/30 05:30:56;;;;;;;39.95;20.80;;;;;;;1.24;100.00;99318.56;5054122;28;20097;-71
2021/12/30 05:33:40;;;;;;;40.42;19.63;;;;;;;1.24;100.00;99316.84;5053405;28;20052;-72
2021/12/30 05:36:25;;;;;;;63.03;24.63;;;;;;;1.27;100.00;99322.03;5053995;28;20048;-71
2021/12/30 05:39:10;;;;;;;69.53;26.20;;;;;;;1.25;100.00;99320.28;5039243;28;20117;-71
2021/12/30 05:41:54;;;;;;;91.35;30.55;;;;;;;1.22;100.00;99326.28;5053221;28;20045;-71
2021/12/30 05:44:40;;;;;;;109.18;36.25;;;;;;;1.20;100.00;99329.69;5052958;28;20041;-71
2021/12/30 05:47:25;;;;;;;88.00;30.73;;;;;;;1.17;100.00;99328.00;5053069;28;20036;-71
2021/12/30 05:50:10;;;;;;;73.95;27.23;;;;;;;1.05;100.00;99321.03;5053672;28;20045;-71
2021/12/30 05:52:55;;;;;;;80.55;28.55;;;;;;;0.93;100.00;99319.25;5053853;28;20037;-72
2021/12/30 05:55:39;;;;;;;70.38;27.85;;;;;;;0.92;100.00;99317.53;5053003;28;20041;-71
2021/12/30 05:58:24;;;;;;;71.57;25.90;;;;;;;0.83;100.00;99325.19;5052913;28;20093;-71
2021/12/30 06:01:09;;;;;;;61.67;25.58;;;;;;;0.69;100.00;99324.25;5052632;28;20147;-71
2021/12/30 06:03:54;;;;;;;59.15;24.88;;;;;;;0.63;100.00;99330.22;5052613;28;20052;-71
2021/12/30 06:06:39;;;;;;;85.80;27.73;;;;;;;0.58;100.00;99331.91;5053467;28;20094;-71
2021/12/30 06:09:25;;;;;;;80.50;30.35;;;;;;;0.66;100.00;99327.66;5052694;28;20144;-71
2021/12/30 06:12:10;;;;;;;54.53;24.73;;;;;;;0.62;100.00;99325.94;5053206;28;20037;-71
2021/12/30 06:14:54;;;;;;;44.58;22.92;;;;;;;0.66;100.00;99319.94;5032758;28;20041;-71
2021/12/30 06:17:39;;;;;;;42.40;21.08;;;;;;;0.76;100.00;99320.88;5032911;28;20046;-71
2021/12/30 06:20:23;;;;;;;70.72;35.42;;;;;;;0.81;100.00;99324.31;5032393;28;20049;-71
2021/12/30 06:23:08;;;;;;;71.65;36.00;;;;;;;0.77;100.00;99316.56;5031549;28;20042;-71
2021/12/30 06:25:52;;;;;;;97.68;39.13;;;;;;;0.77;100.00;99327.72;5031592;28;20049;-71
2021/12/30 06:28:36;;;;;;;83.03;33.67;;;;;;;0.78;100.00;99334.63;5030879;28;20118;-71
2021/12/30 06:31:20;;;;;;;135.25;36.78;;;;;;;0.80;100.00;99332.06;5030625;28;20045;-71
2021/12/30 06:34:05;;;;;;;195.43;45.50;;;;;;;0.83;100.00;99326.91;5030784;28;20038;-71
2021/12/30 06:36:49;;;;;;;142.02;46.20;;;;;;;0.87;100.00;99341.56;5032005;28;20038;-71
2021/12/30 06:39:34;;;;;;;138.60;46.10;;;;;;;0.86;100.00;99335.53;5031730;28;20041;-71
2021/12/30 06:42:18;;;;;;;85.68;36.08;;;;;;;0.89;100.00;99332.97;5031342;28;20038;-71
2021/12/30 06:45:04;;;;;;;78.18;31.75;;;;;;;0.87;100.00;99342.41;5030568;28;20038;-71
2021/12/30 06:47:48;;;;;;;65.55;26.10;;;;;;;0.93;100.00;99350.19;5031308;28;20046;-71
2021/12/30 06:50:33;;;;;;;143.10;48.67;;;;;;;0.98;100.00;99351.97;5031453;28;20045;-71
2021/12/30 06:53:19;;;;;;;266.83;85.15;;;;;;;0.96;100.00;99349.34;5030542;28;20117;-71
2021/12/30 06:56:04;;;;;;;411.73;140.57;;;;;;;1.02;100.00;99354.56;5030835;28;20102;-71
2021/12/30 06:58:48;;;;;;;362.23;148.80;;;;;;;1.06;100.00;99355.44;5032475;28;20048;-71
2021/12/30 07:01:33;;;;;;;226.27;97.22;;;;;;;1.02;100.00;99356.28;5032489;28;20118;-71
2021/12/30 07:04:18;;;;;;;169.60;69.20;;;;;;;0.99;100.00;99357.13;5032530;28;20112;-71
2021/12/30 07:07:02;;;;;;;168.77;68.15;;;;;;;1.12;100.00;99365.78;5032855;28;20075;-71
2021/12/30 07:09:47;;;;;;;166.68;75.85;;;;;;;1.13;100.00;99370.09;5031780;28;20042;-71
2021/12/30 07:12:32;;;;;;;122.00;66.68;;;;;;;1.14;100.00;99379.56;5032563;28;20351;-72
2021/12/30 07:15:16;;;;;;;96.68;53.63;;;;;;;1.13;100.00;99383.84;5046980;28;20045;-71
2021/12/30 07:18:01;;;;;;;68.75;38.25;;;;;;;1.22;100.00;99383.03;5050459;28;20052;-71
2021/12/30 07:20:45;;;;;;;54.75;29.50;;;;;;;1.21;100.00;99383.06;5050948;28;20128;-71
2021/12/30 07:23:29;;;;;;;42.80;24.92;;;;;;;1.28;100.00;99380.50;5051182;28;20041;-72
2021/12/30 07:26:14;;;;;;;37.92;21.02;;;;;;;1.38;100.00;99382.28;5052756;28;20045;-72
2021/12/30 07:28:59;;;;;;;38.78;21.35;;;;;;;1.46;100.00;99384.88;5051342;28;20109;-72
2021/12/30 07:31:44;;;;;;;38.75;21.65;;;;;;;1.42;100.00;99382.28;5051394;28;20045;-72
2021/12/30 07:34:28;;;;;;;43.58;23.10;;;;;;;1.46;100.00;99377.13;5051487;28;20045;-72
2021/12/30 07:37:16;;;;;;;38.63;23.17;;;;;;;1.50;100.00;99383.22;5052218;28;20041;-71
2021/12/30 07:40:01;;;;;;;43.35;23.20;;;;;;;1.53;100.00;99380.66;5051853;28;20142;-72
2021/12/30 07:42:46;;;;;;;34.65;19.20;;;;;;;1.59;100.00;99386.69;5051557;28;20065;-71
2021/12/30 07:45:31;;;;;;;34.78;19.38;;;;;;;1.62;100.00;99384.09;5052166;28;20518;-71
2021/12/30 07:48:15;;;;;;;42.08;23.05;;;;;;;1.62;100.00;99386.69;5052548;28;20121;-71
2021/12/30 07:51:00;;;;;;;40.58;23.90;;;;;;;1.73;100.00;99393.63;5051543;28;20506;-71
2021/12/30 07:53:44;;;;;;;47.70;24.15;;;;;;;1.76;100.00;99391.06;5052506;28;20049;-71
2021/12/30 07:56:28;;;;;;;47.75;24.55;;;;;;;1.72;100.00;99397.91;5037151;28;20110;-71
2021/12/30 07:59:12;;;;;;;40.78;23.60;;;;;;;1.77;100.00;99398.81;5052010;28;20063;-71
2021/12/30 08:01:58;;;;;;;38.88;21.08;;;;;;;1.78;100.00;99405.69;5037160;28;20395;-71
2021/12/30 08:04:43;;;;;;;40.03;21.27;;;;;;;1.83;100.00;99411.75;5037125;28;20061;-71
2021/12/30 08:07:27;;;;;;;52.25;25.90;;;;;;;1.81;100.00;99413.44;5054303;28;20045;-71
2021/12/30 08:10:14;;;;;;;59.95;32.28;;;;;;;1.86;100.00;99409.19;5054866;28;20041;-71
2021/12/30 08:12:58;;;;;;;53.60;29.70;;;;;;;1.82;100.00;99410.03;5055165;28;20435;-72
2021/12/30 08:15:43;;;;;;;48.80;25.58;;;;;;;1.74;100.00;99416.00;5054910;28;20070;-72
2021/12/30 08:18:28;;;;;;;50.40;25.70;;;;;;;1.77;100.00;99416.88;5054183;28;20041;-72
2021/12/30 08:21:13;;;;;;;54.47;26.60;;;;;;;1.68;100.00;99427.16;5055181;28;20045;-72
2021/12/30 08:23:57;;;;;;;50.58;24.70;;;;;;;1.68;100.00;99427.16;5054163;28;20041;-72
2021/12/30 08:26:41;;;;;;;47.47;26.98;;;;;;;1.72;100.00;99435.78;5040134;28;20057;-71
2021/12/30 08:29:26;;;;;;;48.20;28.08;;;;;;;1.75;100.00;99436.66;5054091;28;20106;-71
2021/12/30 08:32:16;;;;;;;47.38;26.77;;;;;;;1.75;100.00;99441.81;5054201;28;20045;-71
2021/12/30 08:35:01;;;;;;;44.90;25.98;;;;;;;1.66;100.00;99436.63;5054871;28;20041;-71
2021/12/30 08:37:46;;;;;;;41.35;23.15;;;;;;;1.77;100.00;99437.53;5055175;28;20053;-71
2021/12/30 08:40:30;;;;;;;38.53;21.52;;;;;;;1.77;100.00;99441.84;5040592;28;20101;-71
2021/12/30 08:43:16;;;;;;;41.35;20.88;;;;;;;1.75;100.00;99441.81;5054111;28;20045;-71
2021/12/30 08:46:00;;;;;;;37.40;20.75;;;;;;;1.71;100.00;99444.41;5054983;28;20037;-71
2021/12/30 08:48:45;;;;;;;37.03;20.15;;;;;;;1.77;100.00;99444.44;5056100;28;20136;-71
2021/12/30 08:51:30;;;;;;;38.80;22.05;;;;;;;1.84;100.00;99441.00;5054952;28;20411;-74
2021/12/30 08:54:14;;;;;;;49.38;27.77;;;;;;;1.78;100.00;99436.66;5055198;28;20041;-74
2021/12/30 08:56:59;;;;;;;45.05;25.92;;;;;;;1.81;100.00;99441.84;5054010;28;20037;-74
2021/12/30 08:59:43;;;;;;;44.35;26.23;;;;;;;1.86;100.00;99435.00;5054857;28;20073;-71
2021/12/30 09:02:28;;;;;;;49.25;30.75;;;;;;;1.85;100.00;99427.22;5053710;28;20359;-71
2021/12/30 09:05:13;;;;;;;42.45;26.60;;;;;;;1.81;100.00;99422.91;5054439;28;20036;-71
2021/12/30 09:07:57;;;;;;;49.00;29.40;;;;;;;1.85;100.00;99433.28;5053710;28;20045;-71
2021/12/30 09:10:45;;;;;;;48.88;26.58;;;;;;;1.96;100.00;99422.13;5039850;28;20052;-71
2021/12/30 09:13:29;;;;;;;35.33;21.50;;;;;;;1.95;100.00;99441.94;5055103;28;20045;-74
2021/12/30 09:16:13;;;;;;;34.85;19.52;;;;;;;2.06;100.00;99435.06;5056184;28;20045;-72
2021/12/30 09:18:58;;;;;;;34.00;19.70;;;;;;;2.09;100.00;99429.91;5055328;28;20048;-74
2021/12/30 09:21:44;;;;;;;28.35;17.77;;;;;;;2.07;100.00;99436.78;5055823;28;20041;-72
2021/12/30 09:24:29;;;;;;;33.60;19.33;;;;;;;2.13;100.00;99445.44;5056168;28;20044;-73
2021/12/30 09:27:13;;;;;;;50.17;26.88;;;;;;;2.13;100.00;99435.09;5056488;28;20422;-73
2021/12/30 09:29:59;;;;;;;55.55;38.22;;;;;;;2.08;100.00;99422.13;5055551;28;20116;-72
2021/12/30 09:32:48;;;;;;;51.38;36.72;;;;;;;2.06;100.00;99423.88;5025472;28;20052;-72
2021/12/30 09:35:33;;;;;;;48.55;35.35;;;;;;;2.14;100.00;99434.22;5039958;28;20041;-72
2021/12/30 09:38:18;;;;;;;43.47;29.95;;;;;;;2.16;100.00;99423.03;5054428;28;20100;-73
2021/12/30 09:41:03;;;;;;;45.28;27.15;;;;;;;2.30;100.00;99430.81;5053568;28;20101;-72
2021/12/30 09:43:48;;;;;;;42.40;26.40;;;;;;;2.25;100.00;99432.56;5053695;28;20415;-72
2021/12/30 09:46:34;;;;;;;62.47;35.85;;;;;;;2.26;100.00;99427.38;5053814;28;20386;-72
2021/12/30 09:49:19;;;;;;;59.08;33.45;;;;;;;2.29;100.00;99429.09;5053931;28;20061;-72
2021/12/30 09:52:04;;;;;;;44.30;26.92;;;;;;;2.23;100.00;99432.53;5053368;28;20041;-72
2021/12/30 09:54:49;;;;;;;40.88;23.13;;;;;;;2.24;100.00;99426.53;5051143;28;20037;-72
2021/12/30 09:57:33;;;;;;;33.95;21.60;;;;;;;2.15;100.00;99413.56;5052177;28;20045;-73
2021/12/30 10:00:18;;;;;;;33.90;22.75;;;;;;;2.23;100.00;99424.78;5051563;28;20057;-74
2021/12/30 10:03:04;;;;;;;42.15;25.33;;;;;;;2.26;100.00;99423.94;5053071;28;20094;-73
2021/12/30 10:05:49;;;;;;;31.52;19.30;;;;;;;2.25;100.00;99429.97;5052009;28;20037;-72
2021/12/30 10:08:42;;;;;;;38.88;22.73;;;;;;;2.36;100.00;99417.91;5051083;28;20044;-76
2021/12/30 10:11:26;;;;;;;34.55;21.40;;;;;;;2.38;100.00;99405.88;5050959;28;20550;-73
2021/12/30 10:14:11;;;;;;;37.58;19.83;;;;;;;2.38;100.00;99423.09;5037174;28;20049;-73
2021/12/30 10:17:14;;;;;;;37.75;22.02;;;;;;;2.37;100.00;99426.53;5051019;28;20037;-72
2021/12/30 10:20:25;;;;;;;37.80;20.98;;;;;;;2.31;100.00;99419.66;5051268;28;20049;-74
2021/12/30 10:23:24;;;;;;;31.50;18.80;;;;;;;2.43;100.00;99434.28;5052633;28;20037;-74
2021/12/30 10:26:08;;;;;;;35.58;21.25;;;;;;;2.45;100.00;99427.41;5053275;28;20045;-74
2021/12/30 10:29:01;;;;;;;49.65;28.08;;;;;;;2.50;100.00;99423.09;5052020;28;20045;-74
2021/12/30 10:31:47;;;;;;;59.38;33.75;;;;;;;2.50;100.00;99434.34;5038290;28;20450;-72
2021/12/30 10:34:31;;;;;;;70.82;33.55;;;;;;;2.46;100.00;99427.41;5053369;28;20383;-74
2021/12/30 10:37:19;;;;;;;69.25;32.40;;;;;;;2.49;100.00;99434.31;5039768;28;20372;-74
2021/12/30 10:40:23;;;;;;;78.97;33.63;;;;;;;2.51;100.00;99430.00;5054144;28;20466;-72
2021/12/30 10:44:05;;;;;;;63.47;25.60;;;;;;;2.54;100.00;99433.47;5038051;28;20372;-72
2021/12/30 10:46:30;;;;;;;54.45;24.38;;;;;;;2.63;100.00;99421.41;5051954;28;20065;-72
2021/12/30 10:49:26;;;;;;;71.15;25.90;;;;;;;2.61;100.00;99421.41;5052984;28;20351;-72
2021/12/30 10:52:15;;;;;;;63.88;26.70;;;;;;;2.59;100.00;99415.34;5038168;28;20053;-73
2021/12/30 10:55:11;;;;;;;82.45;27.38;;;;;;;2.64;100.00;99405.91;5052088;28;20041;-73
2021/12/30 10:57:56;;;;;;;89.75;27.08;;;;;;;2.71;100.00;99415.38;5052591;28;20041;-73
2021/12/30 11:00:40;;;;;;;92.45;26.80;;;;;;;2.70;100.00;99411.06;5023940;28;20061;-73
2021/12/30 11:03:24;;;;;;;68.40;25.50;;;;;;;2.75;100.00;99411.91;5053002;28;20049;-73
2021/12/30 11:06:10;;;;;;;56.55;22.33;;;;;;;2.75;100.00;99422.25;5052805;28;20423;-73
2021/12/30 11:09:15;;;;;;;45.10;21.67;;;;;;;2.81;100.00;99424.84;5052514;28;20040;-73
2021/12/30 11:12:04;;;;;;;134.40;47.38;;;;;;;2.81;100.00;99424.84;5051943;28;20116;-74
2021/12/30 11:14:49;;;;;;;179.63;63.95;;;;;;;2.80;100.00;99432.63;5052449;28;20049;-76
2021/12/30 11:17:36;;;;;;;120.53;44.72;;;;;;;2.76;100.00;99430.88;5037903;28;20037;-73
2021/12/30 11:20:22;;;;;;;118.93;39.75;;;;;;;2.73;100.00;99411.06;5052135;28;20045;-74
2021/12/30 11:23:07;;;;;;;113.82;34.35;;;;;;;2.78;100.00;99424.84;5052398;28;20041;-73
2021/12/30 11:25:53;;;;;;;144.20;32.58;;;;;;;2.73;100.00;99413.66;5052499;28;20045;-73
2021/12/30 11:28:38;;;;;;;163.77;32.53;;;;;;;2.73;100.00;99412.78;5051710;28;20056;-74
2021/12/30 11:31:23;;;;;;;104.47;31.45;;;;;;;2.86;100.00;99417.13;5052612;28;20098;-73
2021/12/30 11:34:08;;;;;;;115.43;37.17;;;;;;;2.94;100.00;99440.38;5051716;28;20422;-73
2021/12/30 11:36:52;;;;;;;68.10;30.30;;;;;;;3.01;100.00;99429.16;5052182;28;20407;-73
2021/12/30 11:39:42;;;;;;;112.25;30.40;;;;;;;3.08;100.00;99437.78;5051786;28;20552;-73
2021/12/30 11:42:38;;;;;;;101.40;26.65;;;;;;;3.14;100.00;99441.22;5056137;28;20048;-73
2021/12/30 11:45:27;;;;;;;120.78;26.80;;;;;;;3.22;100.00;99447.28;5055862;28;20041;-73
2021/12/30 11:48:21;;;;;;;67.18;26.70;;;;;;;3.34;100.00;99446.38;5054986;28;20427;-73
2021/12/30 11:51:12;;;;;;;80.05;25.13;;;;;;;3.40;100.00;99441.19;5054865;28;20037;-73
2021/12/30 11:54:35;;;;;;;127.03;27.27;;;;;;;3.47;100.00;99444.63;5055837;28;20041;-73
2021/12/30 11:57:32;;;;;;;91.43;28.00;;;;;;;3.48;100.00;99443.78;5041190;28;20041;-73
2021/12/30 12:00:37;;;;;;;78.05;24.38;;;;;;;3.56;100.00;99438.56;5055521;28;20057;-73
2021/12/30 12:03:36;;;;;;;58.28;23.50;;;;;;;3.61;100.00;99427.34;5055188;28;20049;-73
2021/12/30 12:06:27;;;;;;;54.13;27.27;;;;;;;3.74;100.00;99444.56;5041042;28;20052;-73
2021/12/30 12:09:22;;;;;;;63.42;30.73;;;;;;;3.80;100.00;99442.81;5041028;28;20065;-73
2021/12/30 12:12:10;;;;;;;55.72;28.10;;;;;;;3.85;100.00;99460.06;5055839;28;20037;-73
2021/12/30 12:14:59;;;;;;;62.10;31.23;;;;;;;3.87;100.00;99465.25;5054998;28;20041;-73
2021/12/30 12:17:45;;;;;;;57.92;30.88;;;;;;;3.96;100.00;99460.03;5040439;28;20048;-73
2021/12/30 12:20:34;;;;;;;49.20;26.58;;;;;;;3.96;100.00;99454.84;5055147;28;20044;-73
2021/12/30 12:23:37;;;;;;;42.30;23.10;;;;;;;4.12;100.00;99453.91;5040844;28;20049;-73
2021/12/30 12:26:24;;;;;;;35.97;22.80;;;;;;;4.23;100.00;99464.25;5054673;28;20098;-73
2021/12/30 12:29:40;;;;;;;40.20;22.30;;;;;;;4.29;100.00;99463.34;5054392;28;20438;-74
2021/12/30 12:32:30;;;;;;;37.83;20.38;;;;;;;4.26;100.00;99456.47;5045617;28;20057;-73
2021/12/30 12:35:17;;;;;;;32.13;19.48;;;;;;;4.29;100.00;99473.69;5054660;28;20041;-73
2021/12/30 12:38:06;;;;;;;169.38;87.80;;;;;;;4.27;100.00;99467.69;5038311;28;20431;-73
2021/12/30 12:40:53;;;;;;;486.90;234.10;;;;;;;4.30;100.00;99463.34;5053274;28;20040;-74
2021/12/30 12:43:39;;;;;;;380.88;231.65;;;;;;;4.27;100.00;99467.69;5052456;28;20550;-73